createdAt,value
2024-03-17T00:00:19.941Z,100.00
2024-03-17T00:05:43.216Z,100.00
2024-03-17T00:10:50.829Z,100.00
2024-03-17T00:15:55.210Z,100.00
2024-03-17T00:20:58.220Z,100.00
2024-03-17T00:26:01.688Z,100.00
2024-03-17T00:31:05.084Z,100.00
2024-03-17T00:36:08.420Z,100.00
2024-03-17T00:41:11.205Z,100.00
2024-03-17T00:46:14.527Z,100.00
2024-03-17T00:51:18.036Z,100.00
2024-03-17T00:56:21.682Z,100.00
2024-03-17T01:01:26.231Z,100.00
2024-03-17T01:06:29.178Z,100.00
2024-03-17T01:11:32.228Z,100.00
2024-03-17T01:16:35.208Z,100.00
2024-03-17T01:21:38.627Z,100.00
2024-03-17T01:26:41.720Z,100.00
2024-03-17T01:31:44.726Z,100.00
2024-03-17T01:36:47.625Z,100.00
2024-03-17T01:41:50.732Z,100.00
2024-03-17T01:46:54.604Z,100.00
2024-03-17T01:51:57.656Z,100.00
2024-03-17T01:57:00.676Z,100.00
2024-03-17T02:02:33.568Z,100.00
2024-03-17T02:07:36.572Z,100.00
2024-03-17T02:12:39.680Z,100.00
2024-03-17T02:17:43.293Z,100.00
2024-03-17T02:22:46.511Z,100.00
2024-03-17T02:27:49.813Z,100.00
2024-03-17T02:32:56.298Z,100.00
2024-03-17T02:37:59.344Z,100.00
2024-03-17T02:43:02.313Z,100.00
2024-03-17T02:48:07.662Z,100.00
2024-03-17T02:53:10.679Z,100.00
2024-03-17T02:58:13.512Z,100.00
2024-03-17T03:03:16.472Z,100.00
2024-03-17T03:08:20.090Z,100.00
2024-03-17T03:13:22.988Z,100.00
2024-03-17T03:18:25.989Z,100.00
2024-03-17T03:23:28.991Z,100.00
2024-03-17T03:28:33.638Z,100.00
2024-03-17T03:33:37.093Z,100.00
2024-03-17T03:38:40.472Z,100.00
2024-03-17T03:43:44.406Z,100.00
2024-03-17T03:48:47.407Z,100.00
2024-03-17T03:53:51.923Z,100.00
2024-03-17T03:58:55.057Z,100.00
2024-03-17T04:03:58.264Z,100.00
2024-03-17T04:09:01.260Z,100.00
2024-03-17T04:14:04.169Z,100.00
2024-03-17T04:19:08.004Z,100.00
2024-03-17T04:24:10.989Z,100.00
2024-03-17T04:29:13.995Z,100.00
2024-03-17T04:34:17.720Z,100.00
2024-03-17T04:39:21.228Z,100.00
2024-03-17T04:44:24.339Z,100.00
2024-03-17T04:49:27.346Z,100.00
2024-03-17T04:54:32.994Z,100.00
2024-03-17T04:59:37.640Z,100.00
2024-03-17T05:04:41.157Z,100.00
2024-03-17T05:09:45.300Z,100.00
2024-03-17T05:14:48.188Z,100.00
2024-03-17T05:19:51.198Z,100.00
2024-03-17T05:24:55.033Z,100.00
2024-03-17T05:29:57.916Z,100.00
2024-03-17T05:35:01.362Z,100.00
2024-03-17T05:40:06.104Z,100.00
2024-03-17T05:45:12.263Z,100.00
2024-03-17T05:50:15.328Z,100.00
2024-03-17T05:55:18.225Z,100.00
2024-03-17T06:00:22.649Z,100.00
2024-03-17T06:05:25.699Z,100.00
2024-03-17T06:10:29.217Z,100.00
2024-03-17T06:15:32.325Z,100.00
2024-03-17T06:20:35.490Z,100.00
2024-03-17T06:25:40.272Z,99.75
2024-03-17T06:30:50.967Z,99.00
2024-03-17T06:35:53.854Z,98.08
2024-03-17T06:40:56.655Z,98.00
2024-03-17T06:46:00.679Z,97.92
2024-03-17T06:51:04.096Z,97.32
2024-03-17T06:56:07.410Z,97.17
2024-03-17T07:01:10.849Z,96.92
2024-03-17T07:06:13.752Z,96.18
2024-03-17T07:11:18.443Z,96.50
2024-03-17T07:16:26.483Z,96.16
2024-03-17T07:21:29.797Z,96.18
2024-03-17T07:26:32.907Z,95.87
2024-03-17T07:31:36.338Z,94.80
2024-03-17T07:36:40.956Z,94.19
2024-03-17T07:41:43.969Z,94.53
2024-03-17T07:46:47.177Z,94.73
2024-03-17T07:51:50.179Z,94.95
2024-03-17T07:56:53.383Z,95.16
2024-03-17T08:01:58.967Z,95.95
2024-03-17T08:07:02.053Z,96.15
2024-03-17T08:12:05.628Z,96.08
2024-03-17T08:17:08.882Z,96.84
2024-03-17T08:22:12.097Z,97.06
2024-03-17T08:27:15.910Z,97.69
2024-03-17T08:32:19.486Z,97.87
2024-03-17T08:37:38.959Z,97.59
2024-03-17T08:42:42.986Z,96.07
2024-03-17T08:47:46.581Z,96.83
2024-03-17T08:52:52.304Z,96.64
2024-03-17T08:57:55.439Z,96.97
2024-03-17T09:02:59.156Z,97.09
2024-03-17T09:08:02.884Z,96.34
2024-03-17T09:13:05.991Z,95.14
2024-03-17T09:18:10.500Z,95.26
2024-03-17T09:23:15.744Z,93.02
2024-03-17T09:28:19.252Z,92.13
2024-03-17T09:33:23.140Z,93.50
2024-03-17T09:38:26.644Z,93.03
2024-03-17T09:43:30.470Z,92.39
2024-03-17T09:48:33.871Z,90.79
2024-03-17T09:53:37.219Z,89.75
2024-03-17T09:58:41.310Z,88.25
2024-03-17T10:03:44.312Z,88.04
2024-03-17T10:08:49.015Z,87.19
2024-03-17T10:14:03.054Z,85.29
2024-03-17T10:19:11.862Z,84.15
2024-03-17T10:24:16.094Z,83.68
2024-03-17T10:29:37.202Z,81.79
2024-03-17T10:34:41.097Z,77.50
2024-03-17T10:39:45.805Z,75.98
2024-03-17T10:44:50.715Z,74.94
2024-03-17T10:49:56.283Z,75.50
2024-03-17T10:55:04.346Z,74.90
2024-03-17T11:00:12.229Z,75.77
2024-03-17T11:05:32.529Z,76.98
2024-03-17T11:10:39.353Z,76.05
2024-03-17T11:15:42.774Z,76.42
2024-03-17T11:21:10.108Z,76.38
2024-03-17T11:26:27.345Z,76.11
2024-03-17T11:31:39.341Z,75.28
2024-03-17T11:36:42.269Z,74.15
2024-03-17T11:41:49.164Z,74.03
2024-03-17T11:47:08.978Z,74.06
2024-03-17T11:52:16.385Z,73.96
2024-03-17T11:57:26.385Z,74.08
2024-03-17T12:02:32.940Z,74.57
2024-03-17T12:07:43.519Z,74.29
2024-03-17T12:12:49.167Z,74.55
2024-03-17T12:17:55.355Z,74.72
2024-03-17T12:22:59.366Z,73.84
2024-03-17T12:28:02.885Z,71.49
2024-03-17T12:33:10.734Z,68.43
2024-03-17T12:38:24.768Z,69.68
2024-03-17T12:43:28.601Z,70.38
2024-03-17T12:48:31.601Z,70.43
2024-03-17T12:53:35.373Z,69.57
2024-03-17T12:58:57.066Z,70.35
2024-03-17T13:04:09.688Z,71.79
2024-03-17T13:09:13.398Z,73.11
2024-03-17T13:14:18.946Z,73.18
2024-03-17T13:19:23.588Z,73.28
2024-03-17T13:24:26.880Z,73.56
2024-03-17T13:29:30.117Z,73.54
2024-03-17T13:34:33.331Z,73.39
2024-03-17T13:39:37.357Z,75.34
2024-03-17T13:44:41.018Z,77.71
2024-03-17T13:49:45.246Z,79.45
2024-03-17T13:54:49.244Z,80.69
2024-03-17T13:59:53.582Z,81.81
2024-03-17T14:04:57.396Z,81.56
2024-03-17T14:10:01.553Z,81.25
2024-03-17T14:15:12.170Z,80.46
2024-03-17T14:20:15.866Z,79.85
2024-03-17T14:25:19.690Z,80.05
2024-03-17T14:30:23.211Z,80.38
2024-03-17T14:35:28.145Z,80.64
2024-03-17T14:40:31.374Z,81.66
2024-03-17T14:45:36.153Z,82.05
2024-03-17T14:50:39.722Z,82.46
2024-03-17T14:55:44.929Z,81.54
2024-03-17T15:00:48.201Z,81.55
2024-03-17T15:05:53.816Z,81.84
2024-03-17T15:10:57.779Z,82.62
2024-03-17T15:16:02.857Z,83.39
2024-03-17T15:21:08.689Z,84.39
2024-03-17T15:26:12.920Z,85.08
2024-03-17T15:31:16.576Z,85.56
2024-03-17T15:36:21.288Z,86.04
2024-03-17T15:41:24.713Z,87.29
2024-03-17T15:46:28.850Z,88.35
2024-03-17T15:51:33.469Z,89.41
2024-03-17T15:56:36.991Z,90.73
2024-03-17T16:01:41.496Z,91.66
2024-03-17T16:06:45.244Z,92.24
2024-03-17T16:11:48.971Z,92.86
2024-03-17T16:16:52.277Z,93.39
2024-03-17T16:21:56.419Z,94.18
2024-03-17T16:26:59.819Z,94.76
2024-03-17T16:32:03.951Z,95.21
2024-03-17T16:37:06.863Z,95.99
2024-03-17T16:42:10.720Z,96.88
2024-03-17T16:47:32.733Z,97.83
2024-03-17T16:52:37.277Z,98.71
2024-03-17T16:57:40.162Z,99.32
2024-03-17T17:02:45.434Z,99.93
2024-03-17T17:07:48.522Z,100.00
2024-03-17T17:12:52.004Z,100.00
2024-03-17T17:17:58.531Z,100.00
2024-03-17T17:23:01.729Z,100.00
2024-03-17T17:28:05.614Z,100.00
2024-03-17T17:33:09.088Z,100.00
2024-03-17T17:38:12.499Z,100.00
2024-03-17T17:43:16.202Z,100.00
2024-03-17T17:48:19.201Z,100.00
2024-03-17T17:53:22.411Z,100.00
2024-03-17T17:58:27.884Z,100.00
2024-03-17T18:03:31.389Z,100.00
2024-03-17T18:08:34.510Z,100.00
2024-03-17T18:13:38.065Z,100.00
2024-03-17T18:18:41.743Z,100.00
2024-03-17T18:23:45.747Z,100.00
2024-03-17T18:28:52.542Z,100.00
2024-03-17T18:33:59.026Z,100.00
2024-03-17T18:39:01.972Z,100.00
2024-03-17T18:44:05.351Z,100.00
2024-03-17T18:49:12.302Z,100.00
2024-03-17T18:54:15.348Z,100.00
2024-03-17T18:59:20.523Z,100.00
2024-03-17T19:04:25.451Z,100.00
2024-03-17T19:09:30.650Z,100.00
2024-03-17T19:14:33.508Z,100.00
2024-03-17T19:19:39.197Z,100.00
2024-03-17T19:24:43.007Z,100.00
2024-03-17T19:29:48.147Z,100.00
2024-03-17T19:34:52.528Z,100.00
2024-03-17T19:39:56.624Z,100.00
2024-03-17T19:44:59.823Z,100.00
2024-03-17T19:50:02.948Z,100.00
2024-03-17T19:55:06.133Z,100.00
2024-03-17T20:00:11.293Z,100.00
2024-03-17T20:05:14.401Z,100.00
2024-03-17T20:10:18.943Z,100.00
2024-03-17T20:15:24.558Z,100.00
2024-03-17T20:20:29.453Z,100.00
2024-03-17T20:25:33.578Z,100.00
2024-03-17T20:30:37.408Z,100.00
2024-03-17T20:35:40.611Z,100.00
2024-03-17T20:40:44.132Z,100.00
2024-03-17T20:45:47.273Z,100.00
2024-03-17T20:50:53.612Z,100.00
2024-03-17T20:55:57.397Z,100.00
2024-03-17T21:01:01.050Z,100.00
2024-03-17T21:06:05.276Z,100.00
2024-03-17T21:11:09.742Z,100.00
2024-03-17T21:16:13.030Z,100.00
2024-03-17T21:21:17.275Z,100.00
2024-03-17T21:26:20.697Z,100.00
2024-03-17T21:31:23.581Z,100.00
2024-03-17T21:36:27.611Z,100.00
2024-03-17T21:41:31.946Z,100.00
2024-03-17T21:46:35.358Z,100.00
2024-03-17T21:51:39.888Z,100.00
2024-03-17T21:56:42.908Z,100.00
2024-03-17T22:01:48.773Z,100.00
2024-03-17T22:06:52.304Z,100.00
2024-03-17T22:11:55.506Z,100.00
2024-03-17T22:17:01.397Z,100.00
2024-03-17T22:22:04.709Z,100.00
2024-03-17T22:27:08.625Z,100.00
2024-03-17T22:32:12.089Z,100.00
2024-03-17T22:37:15.346Z,100.00
2024-03-17T22:42:18.557Z,100.00
2024-03-17T22:47:21.864Z,100.00
2024-03-17T22:52:24.868Z,100.00
2024-03-17T22:57:28.994Z,100.00
2024-03-17T23:02:32.406Z,100.00
2024-03-17T23:07:35.314Z,100.00
2024-03-17T23:12:38.412Z,100.00
2024-03-17T23:17:41.360Z,100.00
2024-03-17T23:22:50.469Z,100.00
2024-03-17T23:27:54.492Z,100.00
2024-03-17T23:32:57.803Z,100.00
2024-03-17T23:38:01.830Z,100.00
2024-03-17T23:43:05.866Z,100.00
2024-03-17T23:48:09.330Z,100.00
2024-03-17T23:53:12.277Z,100.00
2024-03-17T23:58:15.276Z,100.00
